createdAt,value
2022-10-04T00:00:40.558Z,101458.50
2022-10-04T00:02:48.320Z,101454.13
2022-10-04T00:04:57.738Z,101460.31
2022-10-04T00:07:06.692Z,101459.53
2022-10-04T00:09:18.350Z,101463.94
2022-10-04T00:11:26.343Z,101445.59
2022-10-04T00:13:30.787Z,101446.41
2022-10-04T00:15:37.232Z,101454.28
2022-10-04T00:17:39.994Z,101454.16
2022-10-04T00:19:47.053Z,101451.34
2022-10-04T00:22:18.277Z,101452.06
2022-10-04T00:24:22.941Z,101449.41
2022-10-04T00:27:13.649Z,101444.16
2022-10-04T00:29:32.677Z,101452.78
2022-10-04T00:31:55.640Z,101457.16
2022-10-04T00:34:39.294Z,101461.50
2022-10-04T00:36:56.244Z,101458.91
2022-10-04T00:39:19.412Z,101453.38
2022-10-04T00:41:23.004Z,101461.13
2022-10-04T00:43:30.330Z,101458.63
2022-10-04T00:45:38.041Z,101456.16
2022-10-04T00:48:02.584Z,101453.44
2022-10-04T00:50:16.623Z,101456.88
2022-10-04T00:52:26.716Z,101454.06
2022-10-04T00:54:35.097Z,101458.53
2022-10-04T00:56:44.004Z,101451.72
2022-10-04T00:59:03.705Z,101451.69
2022-10-04T01:01:07.009Z,101448.81
2022-10-04T01:03:15.031Z,101442.84
2022-10-04T01:05:22.239Z,101437.56
2022-10-04T01:07:30.339Z,101439.41
2022-10-04T01:09:37.679Z,101441.19
2022-10-04T01:11:45.937Z,101427.97
2022-10-04T01:13:52.394Z,101419.22
2022-10-04T01:16:00.638Z,101420.00
2022-10-04T01:18:17.636Z,101427.06
2022-10-04T01:20:33.626Z,101412.97
2022-10-04T01:22:43.011Z,101415.97
2022-10-04T01:24:46.316Z,101411.34
2022-10-04T01:26:49.382Z,101411.34
2022-10-04T01:28:52.325Z,101412.31
2022-10-04T01:30:55.928Z,101421.13
2022-10-04T01:32:58.760Z,101410.72
2022-10-04T01:35:01.595Z,101419.47
2022-10-04T01:37:04.480Z,101415.09
2022-10-04T01:39:09.417Z,101418.66
2022-10-04T01:41:15.753Z,101417.75
2022-10-04T01:43:28.857Z,101404.81
2022-10-04T01:45:38.515Z,101403.94
2022-10-04T01:47:45.543Z,101395.97
2022-10-04T01:49:49.852Z,101393.31
2022-10-04T01:51:58.389Z,101405.50
2022-10-04T01:54:06.903Z,101393.31
2022-10-04T01:56:15.032Z,101393.31
2022-10-04T01:58:22.187Z,101383.03
2022-10-04T02:00:25.355Z,101382.16
2022-10-04T02:02:36.326Z,101379.44
2022-10-04T02:04:41.534Z,101380.16
2022-10-04T02:06:47.121Z,101376.69
2022-10-04T02:08:53.415Z,101368.84
2022-10-04T02:10:57.366Z,101374.81
2022-10-04T02:13:02.020Z,101387.84
2022-10-04T02:15:08.570Z,101386.06
2022-10-04T02:17:13.264Z,101379.00
2022-10-04T02:19:17.005Z,101372.91
2022-10-04T02:21:21.112Z,101373.81
2022-10-04T02:23:25.168Z,101366.88
2022-10-04T02:25:28.221Z,101359.97
2022-10-04T02:27:31.570Z,101353.03
2022-10-04T02:29:36.049Z,101351.97
2022-10-04T02:31:57.990Z,101352.59
2022-10-04T02:34:01.407Z,101344.78
2022-10-04T02:36:05.762Z,101336.22
2022-10-04T02:38:14.701Z,101338.75
2022-10-04T02:40:20.176Z,101341.22
2022-10-04T02:42:37.760Z,101343.56
2022-10-04T02:44:45.855Z,101341.03
2022-10-04T02:46:53.011Z,101348.03
2022-10-04T02:48:59.146Z,101349.75
2022-10-04T02:51:15.607Z,101345.44
2022-10-04T02:53:26.537Z,101351.34
2022-10-04T02:55:31.700Z,101340.00
2022-10-04T02:57:36.228Z,101340.00
2022-10-04T02:59:40.551Z,101335.63
2022-10-04T03:01:52.051Z,101327.03
2022-10-04T03:03:56.953Z,101333.97
2022-10-04T03:06:02.337Z,101331.03
2022-10-04T03:08:05.845Z,101329.53
2022-10-04T03:10:11.932Z,101327.94
2022-10-04T03:12:15.907Z,101321.00
2022-10-04T03:14:21.310Z,101328.00
2022-10-04T03:16:24.991Z,101327.94
2022-10-04T03:18:31.249Z,101327.09
2022-10-04T03:20:38.142Z,101331.38
2022-10-04T03:22:46.100Z,101326.19
2022-10-04T03:24:53.512Z,101329.81
2022-10-04T03:26:59.788Z,101321.94
2022-10-04T03:29:02.925Z,101323.72
2022-10-04T03:31:06.328Z,101317.78
2022-10-04T03:33:09.198Z,101319.59
2022-10-04T03:35:29.037Z,101321.41
2022-10-04T03:37:35.816Z,101323.06
2022-10-04T03:39:41.595Z,101324.78
2022-10-04T03:41:44.803Z,101334.25
2022-10-04T03:43:50.368Z,101336.03
2022-10-04T03:45:54.163Z,101332.56
2022-10-04T03:48:03.080Z,101328.16
2022-10-04T03:50:15.391Z,101337.56
2022-10-04T03:52:23.955Z,101335.59
2022-10-04T03:54:28.137Z,101326.69
2022-10-04T03:56:33.958Z,101332.75
2022-10-04T03:58:37.242Z,101327.44
2022-10-04T04:00:45.328Z,101328.47
2022-10-04T04:02:52.062Z,101328.38
2022-10-04T04:05:05.084Z,101336.25
2022-10-04T04:07:14.106Z,101338.81
2022-10-04T04:09:24.589Z,101332.50
2022-10-04T04:11:28.709Z,101338.75
2022-10-04T04:13:39.569Z,101336.25
2022-10-04T04:15:45.478Z,101333.66
2022-10-04T04:17:52.303Z,101337.19
2022-10-04T04:19:58.425Z,101336.34
2022-10-04T04:22:01.382Z,101344.03
2022-10-04T04:24:09.944Z,101344.00
2022-10-04T04:26:23.024Z,101347.34
2022-10-04T04:28:29.915Z,101343.78
2022-10-04T04:30:35.386Z,101345.38
2022-10-04T04:32:43.263Z,101345.63
2022-10-04T04:34:52.773Z,101352.50
2022-10-04T04:37:00.120Z,101346.44
2022-10-04T04:39:28.001Z,101348.94
2022-10-04T04:41:35.951Z,101343.69
2022-10-04T04:43:44.500Z,101349.94
2022-10-04T04:46:02.931Z,101339.78
2022-10-04T04:48:15.645Z,101353.59
2022-10-04T04:50:20.804Z,101344.09
2022-10-04T04:52:33.819Z,101350.16
2022-10-04T04:54:36.642Z,101346.75
2022-10-04T04:56:43.130Z,101353.13
2022-10-04T04:58:49.054Z,101346.25
2022-10-04T05:00:57.963Z,101345.41
2022-10-04T05:03:02.855Z,101341.94
2022-10-04T05:05:16.037Z,101343.94
2022-10-04T05:07:19.892Z,101335.38
2022-10-04T05:09:25.751Z,101330.31
2022-10-04T05:11:30.962Z,101332.00
2022-10-04T05:13:40.036Z,101329.72
2022-10-04T05:15:43.886Z,101325.41
2022-10-04T05:17:46.982Z,101331.50
2022-10-04T05:19:51.495Z,101334.19
2022-10-04T05:21:56.631Z,101330.59
2022-10-04T05:24:08.642Z,101334.81
2022-10-04T05:26:13.676Z,101330.34
2022-10-04T05:28:18.498Z,101342.56
2022-10-04T05:30:27.227Z,101335.34
2022-10-04T05:32:45.088Z,101339.78
2022-10-04T05:34:51.003Z,101329.53
2022-10-04T05:37:23.535Z,101331.28
2022-10-04T05:39:29.356Z,101324.44
2022-10-04T05:41:41.946Z,101319.34
2022-10-04T05:43:47.075Z,101320.22
2022-10-04T05:46:19.391Z,101325.41
2022-10-04T05:48:22.376Z,101324.44
2022-10-04T05:50:31.366Z,101322.97
2022-10-04T05:52:36.989Z,101321.22
2022-10-04T05:54:39.831Z,101316.06
2022-10-04T05:57:08.188Z,101314.44
2022-10-04T05:59:26.495Z,101315.97
2022-10-04T06:01:44.052Z,101315.19
2022-10-04T06:04:04.393Z,101320.38
2022-10-04T06:06:17.242Z,101313.53
2022-10-04T06:08:32.265Z,101324.72
2022-10-04T06:10:50.488Z,101334.25
2022-10-04T06:12:58.467Z,101334.25
2022-10-04T06:15:14.224Z,101342.94
2022-10-04T06:17:39.386Z,101351.47
2022-10-04T06:20:06.202Z,101354.91
2022-10-04T06:22:17.187Z,101352.41
2022-10-04T06:24:27.161Z,101360.44
2022-10-04T06:26:40.441Z,101352.50
2022-10-04T06:28:47.687Z,101354.16
2022-10-04T06:31:08.854Z,101356.59
2022-10-04T06:33:35.985Z,101359.13
2022-10-04T06:36:22.041Z,101361.78
2022-10-04T06:39:04.219Z,101355.69
2022-10-04T06:41:34.752Z,101358.38
2022-10-04T06:44:02.553Z,101355.25
2022-10-04T06:46:22.062Z,101354.53
2022-10-04T06:48:56.704Z,101352.75
2022-10-04T06:51:09.129Z,101351.03
2022-10-04T06:53:20.562Z,101345.22
2022-10-04T06:55:48.568Z,101345.47
2022-10-04T06:58:34.525Z,101347.19
2022-10-04T07:00:45.957Z,101355.81
2022-10-04T07:02:53.992Z,101364.56
2022-10-04T07:05:08.512Z,101363.75
2022-10-04T07:07:34.883Z,101374.31
2022-10-04T07:09:38.140Z,101364.53
2022-10-04T07:11:50.197Z,101368.25
2022-10-04T07:13:57.591Z,101371.00
2022-10-04T07:16:06.504Z,101367.78
2022-10-04T07:18:15.166Z,101368.69
2022-10-04T07:20:24.276Z,101382.66
2022-10-04T07:22:31.355Z,101389.06
2022-10-04T07:24:47.724Z,101389.31
2022-10-04T07:26:53.342Z,101391.19
2022-10-04T07:29:16.998Z,101390.44
2022-10-04T07:31:25.954Z,101389.56
2022-10-04T07:33:32.418Z,101382.72
2022-10-04T07:35:44.859Z,101372.53
2022-10-04T07:37:53.347Z,101370.91
2022-10-04T07:40:03.203Z,101368.44
2022-10-04T07:42:15.142Z,101371.13
2022-10-04T07:44:27.828Z,101373.75
2022-10-04T07:46:45.105Z,101384.22
2022-10-04T07:48:49.261Z,101385.94
2022-10-04T07:51:05.982Z,101389.47
2022-10-04T07:53:13.176Z,101389.66
2022-10-04T07:55:24.823Z,101383.09
2022-10-04T07:57:31.801Z,101377.06
2022-10-04T07:59:46.157Z,101378.03
2022-10-04T08:02:01.758Z,101379.88
2022-10-04T08:04:30.932Z,101377.97
2022-10-04T08:06:39.849Z,101383.97
2022-10-04T08:09:02.880Z,101384.22
2022-10-04T08:11:30.098Z,101382.91
2022-10-04T08:13:41.401Z,101376.28
2022-10-04T08:15:45.563Z,101376.34
2022-10-04T08:17:57.103Z,101374.81
2022-10-04T08:20:14.388Z,101375.81
2022-10-04T08:22:28.439Z,101376.06
2022-10-04T08:24:36.547Z,101367.47
2022-10-04T08:26:50.641Z,101367.53
2022-10-04T08:29:19.965Z,101371.09
2022-10-04T08:31:38.842Z,101358.84
2022-10-04T08:34:03.864Z,101370.03
2022-10-04T08:36:18.143Z,101370.69
2022-10-04T08:38:43.008Z,101368.97
2022-10-04T08:41:08.333Z,101360.50
2022-10-04T08:43:40.633Z,101361.47
2022-10-04T08:46:15.967Z,101351.25
2022-10-04T08:48:51.398Z,101344.50
2022-10-04T08:51:27.434Z,101355.88
2022-10-04T08:54:02.053Z,101355.75
2022-10-04T08:56:18.283Z,101364.59
2022-10-04T08:58:41.862Z,101358.31
2022-10-04T09:01:01.803Z,101360.84
2022-10-04T09:03:31.512Z,101354.81
2022-10-04T09:05:57.216Z,101363.41
2022-10-04T09:08:32.497Z,101356.44
2022-10-04T09:10:44.414Z,101358.00
2022-10-04T09:12:57.553Z,101367.84
2022-10-04T09:15:22.166Z,101356.91
2022-10-04T09:17:39.910Z,101361.63
2022-10-04T09:19:54.943Z,101356.81
2022-10-04T09:22:18.805Z,101351.06
2022-10-04T09:24:54.400Z,101349.72
2022-10-04T09:27:12.105Z,101343.13
2022-10-04T09:29:52.192Z,101345.03
2022-10-04T09:32:25.251Z,101346.75
2022-10-04T09:34:41.824Z,101345.16
2022-10-04T09:37:07.238Z,101347.66
2022-10-04T09:39:39.060Z,101350.19
2022-10-04T09:42:16.008Z,101355.53
2022-10-04T09:44:48.470Z,101351.97
2022-10-04T09:47:16.808Z,101353.69
2022-10-04T09:49:37.847Z,101349.91
2022-10-04T09:52:15.536Z,101357.06
2022-10-04T09:54:49.694Z,101356.28
2022-10-04T09:57:09.792Z,101356.63
2022-10-04T09:59:35.240Z,101352.75
2022-10-04T10:01:44.534Z,101354.06
2022-10-04T10:04:22.091Z,101348.81
2022-10-04T10:06:41.591Z,101345.72
2022-10-04T10:08:56.393Z,101337.91
2022-10-04T10:11:27.706Z,101341.81
2022-10-04T10:13:59.506Z,101341.03
2022-10-04T10:16:12.764Z,101347.00
2022-10-04T10:18:27.805Z,101341.28
2022-10-04T10:21:05.804Z,101347.16
2022-10-04T10:23:39.262Z,101332.41
2022-10-04T10:25:53.542Z,101336.00
2022-10-04T10:28:29.032Z,101333.44
2022-10-04T10:30:46.989Z,101339.00
2022-10-04T10:33:35.772Z,101332.72
2022-10-04T10:36:01.043Z,101335.56
2022-10-04T10:38:29.202Z,101333.22
2022-10-04T10:40:53.541Z,101329.66
2022-10-04T10:43:27.776Z,101335.78
2022-10-04T10:45:48.509Z,101324.50
2022-10-04T10:47:56.126Z,101326.47
2022-10-04T10:50:18.310Z,101322.09
2022-10-04T10:52:54.590Z,101324.03
2022-10-04T10:55:26.917Z,101318.91
2022-10-04T10:57:56.779Z,101312.88
2022-10-04T11:00:21.900Z,101313.22
2022-10-04T11:02:51.187Z,101312.38
2022-10-04T11:05:10.087Z,101306.25
2022-10-04T11:07:50.244Z,101314.94
2022-10-04T11:10:21.828Z,101313.06
2022-10-04T11:12:42.638Z,101306.09
2022-10-04T11:15:15.104Z,101312.31
2022-10-04T11:17:38.468Z,101306.38
2022-10-04T11:20:05.557Z,101307.31
2022-10-04T11:22:57.454Z,101302.09
2022-10-04T11:25:25.356Z,101297.84
2022-10-04T11:27:46.605Z,101297.91
2022-10-04T11:30:04.173Z,101302.31
2022-10-04T11:32:23.999Z,101296.25
2022-10-04T11:35:03.448Z,101291.97
2022-10-04T11:37:16.376Z,101293.84
2022-10-04T11:39:45.904Z,101293.84
2022-10-04T11:41:56.973Z,101294.75
2022-10-04T11:44:35.320Z,101291.25
2022-10-04T11:46:46.112Z,101291.28
2022-10-04T11:49:04.996Z,101289.59
2022-10-04T11:51:51.261Z,101293.94
2022-10-04T11:54:24.323Z,101287.03
2022-10-04T11:56:56.357Z,101287.88
2022-10-04T11:59:15.298Z,101286.19
2022-10-04T12:02:01.197Z,101291.47
2022-10-04T12:04:27.125Z,101291.47
2022-10-04T12:06:51.313Z,101288.03
2022-10-04T12:09:11.813Z,101282.03
2022-10-04T12:11:49.464Z,101277.63
2022-10-04T12:14:09.310Z,101270.63
2022-10-04T12:16:41.401Z,101267.16
2022-10-04T12:19:25.676Z,101259.28
2022-10-04T12:21:50.677Z,101252.31
2022-10-04T12:24:21.366Z,101252.31
2022-10-04T12:26:44.899Z,101246.22
2022-10-04T12:29:20.501Z,101237.47
2022-10-04T12:31:29.415Z,101253.22
2022-10-04T12:33:39.727Z,101247.09
2022-10-04T12:36:03.627Z,101238.34
2022-10-04T12:38:37.384Z,101238.34
2022-10-04T12:40:49.450Z,101228.75
2022-10-04T12:42:59.682Z,101224.38
2022-10-04T12:45:19.995Z,101227.88
2022-10-04T12:47:48.133Z,101216.47
2022-10-04T12:50:01.395Z,101224.34
2022-10-04T12:52:12.025Z,101216.53
2022-10-04T12:54:38.998Z,101215.63
2022-10-04T12:56:50.616Z,101212.97
2022-10-04T12:59:07.229Z,101208.66
2022-10-04T13:01:24.918Z,101205.16
2022-10-04T13:03:40.117Z,101207.78
2022-10-04T13:05:55.714Z,101206.03
2022-10-04T13:08:12.667Z,101206.03
2022-10-04T13:10:33.198Z,101206.88
2022-10-04T13:12:45.326Z,101202.50
2022-10-04T13:15:01.881Z,101208.66
2022-10-04T13:17:29.826Z,101206.91
2022-10-04T13:19:50.105Z,101199.03
2022-10-04T13:22:06.375Z,101194.66
2022-10-04T13:24:16.172Z,101199.91
2022-10-04T13:26:42.424Z,101196.38
2022-10-04T13:28:53.856Z,101190.25
2022-10-04T13:31:04.104Z,101194.63
2022-10-04T13:33:19.689Z,101192.88
2022-10-04T13:35:27.002Z,101190.25
2022-10-04T13:37:37.359Z,101183.28
2022-10-04T13:40:21.940Z,101189.38
2022-10-04T13:42:36.731Z,101188.50
2022-10-04T13:45:05.361Z,101189.38
2022-10-04T13:47:24.016Z,101194.63
2022-10-04T13:49:42.964Z,101185.88
2022-10-04T13:52:20.587Z,101190.25
2022-10-04T13:54:50.883Z,101191.09
2022-10-04T13:57:15.864Z,101181.47
2022-10-04T13:59:30.933Z,101182.34
2022-10-04T14:01:59.259Z,101177.97
2022-10-04T14:04:18.083Z,101179.69
2022-10-04T14:06:58.890Z,101181.47
2022-10-04T14:09:22.351Z,101175.34
2022-10-04T14:11:54.032Z,101176.22
2022-10-04T14:14:37.473Z,101169.19
2022-10-04T14:17:01.048Z,101163.94
2022-10-04T14:19:39.009Z,101162.22
2022-10-04T14:22:13.406Z,101161.31
2022-10-04T14:25:06.574Z,101164.84
2022-10-04T14:27:43.301Z,101156.97
2022-10-04T14:30:18.514Z,101151.72
2022-10-04T14:32:51.034Z,101156.13
2022-10-04T14:35:00.491Z,101155.22
2022-10-04T14:37:28.296Z,101154.34
2022-10-04T14:39:59.167Z,101150.84
2022-10-04T14:42:23.772Z,101152.59
2022-10-04T14:44:45.043Z,101143.84
2022-10-04T14:47:00.478Z,101149.97
2022-10-04T14:49:11.110Z,101147.38
2022-10-04T14:51:26.515Z,101152.59
2022-10-04T14:53:37.991Z,101144.72
2022-10-04T14:55:58.491Z,101149.13
2022-10-04T14:58:18.575Z,101145.59
2022-10-04T15:00:23.620Z,101146.50
2022-10-04T15:02:49.175Z,101154.34
2022-10-04T15:05:05.181Z,101150.88
2022-10-04T15:07:18.466Z,101141.22
2022-10-04T15:09:34.242Z,101136.88
2022-10-04T15:12:21.648Z,101134.22
2022-10-04T15:14:35.606Z,101130.72
2022-10-04T15:16:46.657Z,101128.09
2022-10-04T15:18:57.101Z,101114.97
2022-10-04T15:21:04.704Z,101116.72
2022-10-04T15:23:17.395Z,101114.09
2022-10-04T15:25:40.410Z,101113.25
2022-10-04T15:27:53.233Z,101115.84
2022-10-04T15:30:05.075Z,101114.94
2022-10-04T15:32:24.163Z,101114.09
2022-10-04T15:34:33.646Z,101114.09
2022-10-04T15:37:03.650Z,101114.09
2022-10-04T15:39:23.489Z,101119.34
2022-10-04T15:41:37.528Z,101121.97
2022-10-04T15:43:44.806Z,101122.84
2022-10-04T15:46:25.221Z,101120.22
2022-10-04T15:48:39.272Z,101115.81
2022-10-04T15:51:01.074Z,101115.81
2022-10-04T15:53:20.257Z,101116.72
2022-10-04T15:55:32.000Z,101114.97
2022-10-04T15:57:58.395Z,101117.59
2022-10-04T16:00:15.185Z,101109.72
2022-10-04T16:02:31.356Z,101119.31
2022-10-04T16:04:44.720Z,101117.59
2022-10-04T16:06:53.992Z,101104.44
2022-10-04T16:09:19.569Z,101102.72
2022-10-04T16:11:35.498Z,101097.47
2022-10-04T16:13:56.764Z,101096.59
2022-10-04T16:16:36.078Z,101092.22
2022-10-04T16:18:51.218Z,101098.34
2022-10-04T16:21:00.701Z,101100.97
2022-10-04T16:23:24.999Z,101093.97
2022-10-04T16:25:38.641Z,101095.72
2022-10-04T16:27:57.933Z,101100.06
2022-10-04T16:30:25.950Z,101103.59
2022-10-04T16:32:38.818Z,101094.81
2022-10-04T16:34:50.868Z,101087.81
2022-10-04T16:36:59.700Z,101085.19
2022-10-04T16:39:22.040Z,101086.06
2022-10-04T16:41:34.886Z,101074.72
2022-10-04T16:43:49.496Z,101081.69
2022-10-04T16:46:10.853Z,101076.44
2022-10-04T16:48:28.709Z,101079.03
2022-10-04T16:51:25.176Z,101072.00
2022-10-04T16:53:45.634Z,101069.31
2022-10-04T16:55:54.076Z,101065.84
2022-10-04T16:58:41.348Z,101067.53
2022-10-04T17:00:44.490Z,101073.63
2022-10-04T17:03:04.593Z,101086.72
2022-10-04T17:05:33.392Z,101097.16
2022-10-04T17:07:52.801Z,101096.25
2022-10-04T17:10:04.293Z,101091.88
2022-10-04T17:12:18.116Z,101101.47
2022-10-04T17:14:56.850Z,101101.47
2022-10-04T17:17:07.300Z,101101.44
2022-10-04T17:19:33.775Z,101098.81
2022-10-04T17:21:46.126Z,101098.75
2022-10-04T17:24:15.432Z,101099.66
2022-10-04T17:26:30.805Z,101106.59
2022-10-04T17:28:45.861Z,101109.19
2022-10-04T17:30:55.598Z,101121.38
2022-10-04T17:33:21.789Z,101116.06
2022-10-04T17:35:57.243Z,101118.63
2022-10-04T17:38:08.735Z,101118.63
2022-10-04T17:40:30.011Z,101119.47
2022-10-04T17:42:41.097Z,101130.78
2022-10-04T17:44:57.529Z,101129.91
2022-10-04T17:47:11.903Z,101137.66
2022-10-04T17:49:44.025Z,101136.75
2022-10-04T17:52:07.773Z,101134.13
2022-10-04T17:54:33.714Z,101131.47
2022-10-04T17:56:43.675Z,101127.91
2022-10-04T17:58:51.863Z,101131.41
2022-10-04T18:01:01.949Z,101130.47
2022-10-04T18:03:16.167Z,101135.69
2022-10-04T18:05:25.552Z,101132.16
2022-10-04T18:07:33.687Z,101126.88
2022-10-04T18:09:44.866Z,101123.41
2022-10-04T18:11:52.021Z,101133.81
2022-10-04T18:14:01.722Z,101133.78
2022-10-04T18:16:15.150Z,101130.28
2022-10-04T18:18:21.295Z,101128.53
2022-10-04T18:20:30.507Z,101125.88
2022-10-04T18:22:46.434Z,101136.28
2022-10-04T18:25:12.684Z,101124.06
2022-10-04T18:27:21.025Z,101133.63
2022-10-04T18:29:39.156Z,101142.38
2022-10-04T18:31:42.125Z,101142.31
2022-10-04T18:33:51.046Z,101142.31
2022-10-04T18:36:00.856Z,101138.81
2022-10-04T18:38:24.276Z,101139.66
2022-10-04T18:40:34.048Z,101134.41
2022-10-04T18:42:38.214Z,101135.28
2022-10-04T18:44:46.862Z,101138.75
2022-10-04T18:46:56.990Z,101132.59
2022-10-04T18:49:12.806Z,101141.28
2022-10-04T18:51:26.015Z,101136.84
2022-10-04T18:53:44.252Z,101134.16
2022-10-04T18:55:58.164Z,101134.13
2022-10-04T18:58:31.624Z,101124.53
2022-10-04T19:00:58.341Z,101129.66
2022-10-04T19:03:08.667Z,101136.63
2022-10-04T19:05:17.449Z,101140.13
2022-10-04T19:07:30.928Z,101139.25
2022-10-04T19:09:48.625Z,101136.63
2022-10-04T19:11:58.664Z,101140.00
2022-10-04T19:14:09.225Z,101146.88
2022-10-04T19:16:32.276Z,101150.34
2022-10-04T19:18:47.871Z,101152.97
2022-10-04T19:20:59.330Z,101156.44
2022-10-04T19:23:15.486Z,101159.00
2022-10-04T19:25:30.003Z,101169.44
2022-10-04T19:27:38.720Z,101167.69
2022-10-04T19:29:54.811Z,101172.88
2022-10-04T19:32:01.139Z,101176.31
2022-10-04T19:34:10.192Z,101177.22
2022-10-04T19:36:33.239Z,101173.69
2022-10-04T19:38:53.426Z,101183.19
2022-10-04T19:41:03.869Z,101180.53
2022-10-04T19:43:15.452Z,101177.91
2022-10-04T19:45:33.427Z,101177.91
2022-10-04T19:47:50.668Z,101182.13
2022-10-04T19:50:01.909Z,101178.59
2022-10-04T19:52:20.180Z,101190.75
2022-10-04T19:54:31.960Z,101183.72
2022-10-04T19:56:39.840Z,101187.22
2022-10-04T19:58:46.025Z,101178.50
2022-10-04T20:00:49.710Z,101184.63
2022-10-04T20:02:52.634Z,101181.09
2022-10-04T20:04:57.319Z,101186.31
2022-10-04T20:07:01.058Z,101187.78
2022-10-04T20:09:26.823Z,101196.59
2022-10-04T20:11:48.724Z,101207.88
2022-10-04T20:14:25.223Z,101198.34
2022-10-04T20:16:57.824Z,101202.63
2022-10-04T20:19:16.535Z,101207.88
2022-10-04T20:21:27.315Z,101203.50
2022-10-04T20:23:49.505Z,101203.50
2022-10-04T20:26:03.852Z,101202.56
2022-10-04T20:28:06.721Z,101203.41
2022-10-04T20:30:14.669Z,101195.63
2022-10-04T20:32:50.686Z,101199.09
2022-10-04T20:34:55.944Z,101196.38
2022-10-04T20:36:58.821Z,101204.13
2022-10-04T20:39:02.386Z,101204.13
2022-10-04T20:41:05.178Z,101200.66
2022-10-04T20:43:27.310Z,101211.09
2022-10-04T20:45:31.518Z,101209.28
2022-10-04T20:47:43.363Z,101209.28
2022-10-04T20:49:46.526Z,101211.88
2022-10-04T20:51:51.183Z,101217.13
2022-10-04T20:53:53.834Z,101214.25
2022-10-04T20:56:12.250Z,101212.63
2022-10-04T20:58:31.480Z,101217.84
2022-10-04T21:00:35.635Z,101218.69
2022-10-04T21:02:38.598Z,101216.03
2022-10-04T21:04:44.178Z,101218.69
2022-10-04T21:06:55.866Z,101225.66
2022-10-04T21:08:59.197Z,101222.19
2022-10-04T21:11:19.331Z,101217.00
2022-10-04T21:13:44.637Z,101227.41
2022-10-04T21:15:57.055Z,101223.88
2022-10-04T21:18:02.697Z,101230.03
2022-10-04T21:20:07.128Z,101220.44
2022-10-04T21:22:31.818Z,101217.81
2022-10-04T21:24:36.539Z,101220.38
2022-10-04T21:26:39.550Z,101226.22
2022-10-04T21:28:42.303Z,101215.88
2022-10-04T21:30:45.061Z,101221.16
2022-10-04T21:32:47.820Z,101212.50
2022-10-04T21:34:53.845Z,101216.88
2022-10-04T21:36:59.675Z,101208.13
2022-10-04T21:39:03.906Z,101202.91
2022-10-04T21:41:07.007Z,101206.38
2022-10-04T21:43:09.781Z,101211.59
2022-10-04T21:45:12.478Z,101201.09
2022-10-04T21:47:15.325Z,101195.03
2022-10-04T21:49:18.234Z,101188.00
2022-10-04T21:51:21.278Z,101193.19
2022-10-04T21:53:24.209Z,101188.81
2022-10-04T21:55:28.320Z,101189.66
2022-10-04T21:57:35.684Z,101187.91
2022-10-04T21:59:39.998Z,101188.75
2022-10-04T22:01:42.897Z,101183.50
2022-10-04T22:03:45.692Z,101179.09
2022-10-04T22:05:48.567Z,101185.13
2022-10-04T22:07:54.388Z,101180.72
2022-10-04T22:09:57.139Z,101181.56
2022-10-04T22:12:04.443Z,101181.56
2022-10-04T22:14:07.210Z,101180.63
2022-10-04T22:16:10.498Z,101183.13
2022-10-04T22:18:13.387Z,101186.66
2022-10-04T22:20:16.127Z,101191.88
2022-10-04T22:22:20.198Z,101190.16
2022-10-04T22:24:22.944Z,101183.13
2022-10-04T22:26:27.398Z,101188.44
2022-10-04T22:28:31.956Z,101191.88
2022-10-04T22:30:36.269Z,101190.09
2022-10-04T22:32:39.189Z,101184.94
2022-10-04T22:34:41.965Z,101183.28
2022-10-04T22:36:46.002Z,101178.00
2022-10-04T22:38:52.173Z,101180.59
2022-10-04T22:40:54.965Z,101177.84
2022-10-04T22:43:00.648Z,101170.91
2022-10-04T22:45:10.287Z,101166.56
2022-10-04T22:47:15.185Z,101175.22
2022-10-04T22:49:18.800Z,101176.66
2022-10-04T22:51:21.577Z,101175.06
2022-10-04T22:53:25.030Z,101177.00
2022-10-04T22:55:27.847Z,101171.84
2022-10-04T22:57:31.541Z,101174.56
2022-10-04T22:59:38.720Z,101164.16
2022-10-04T23:01:44.904Z,101170.19
2022-10-04T23:03:49.498Z,101169.19
2022-10-04T23:05:52.389Z,101158.81
2022-10-04T23:07:55.165Z,101151.91
2022-10-04T23:09:57.873Z,101141.41
2022-10-04T23:12:00.711Z,101148.41
2022-10-04T23:14:03.482Z,101153.56
2022-10-04T23:16:13.945Z,101153.56
2022-10-04T23:18:19.499Z,101152.75
2022-10-04T23:20:23.030Z,101151.97
2022-10-04T23:22:28.750Z,101146.75
2022-10-04T23:24:31.813Z,101151.03
2022-10-04T23:26:38.593Z,101146.81
2022-10-04T23:28:41.487Z,101143.28
2022-10-04T23:30:45.458Z,101147.59
2022-10-04T23:32:49.898Z,101146.78
2022-10-04T23:34:56.829Z,101143.22
2022-10-04T23:37:00.058Z,101142.41
2022-10-04T23:39:02.881Z,101145.88
2022-10-04T23:41:10.643Z,101143.22
2022-10-04T23:43:18.109Z,101142.41
2022-10-04T23:45:27.430Z,101142.44
2022-10-04T23:47:33.994Z,101139.69
2022-10-04T23:49:36.835Z,101142.22
2022-10-04T23:51:40.990Z,101142.19
2022-10-04T23:53:45.632Z,101147.31
2022-10-04T23:55:48.494Z,101148.19
2022-10-04T23:57:51.717Z,101157.72
2022-10-04T23:59:54.840Z,101156.91
